createdAt,value
2018-12-26T00:02:25.780Z,95.80
2018-12-26T00:04:54.835Z,95.70
2018-12-26T00:07:23.930Z,95.70
2018-12-26T00:09:53.408Z,95.70
2018-12-26T00:12:22.505Z,95.70
2018-12-26T00:14:51.280Z,95.80
2018-12-26T00:17:20.532Z,95.70
2018-12-26T00:19:49.603Z,95.80
2018-12-26T00:22:18.426Z,95.80
2018-12-26T00:24:47.238Z,95.90
2018-12-26T00:27:16.466Z,95.80
2018-12-26T00:29:45.240Z,95.70
2018-12-26T00:32:14.045Z,95.60
2018-12-26T00:34:43.137Z,95.50
2018-12-26T00:37:12.451Z,95.50
2018-12-26T00:39:41.782Z,95.60
2018-12-26T00:42:10.670Z,95.60
2018-12-26T00:44:39.538Z,95.60
2018-12-26T00:47:10.038Z,95.60
2018-12-26T00:49:39.186Z,95.60
2018-12-26T00:52:07.977Z,95.50
2018-12-26T00:54:36.881Z,95.60
2018-12-26T00:57:05.680Z,95.60
2018-12-26T00:59:35.082Z,95.50
2018-12-26T01:02:03.879Z,95.60
2018-12-26T01:04:32.967Z,95.60
2018-12-26T01:07:01.764Z,95.50
2018-12-26T01:09:30.706Z,95.50
2018-12-26T01:12:00.149Z,95.50
2018-12-26T01:14:28.932Z,95.60
2018-12-26T01:16:57.722Z,95.50
2018-12-26T01:19:26.811Z,95.60
2018-12-26T01:21:56.381Z,95.60
2018-12-26T01:24:25.637Z,95.70
2018-12-26T01:26:54.593Z,95.80
2018-12-26T01:29:23.369Z,95.70
2018-12-26T01:31:52.194Z,95.80
2018-12-26T01:34:21.488Z,95.80
2018-12-26T01:36:50.281Z,95.80
2018-12-26T01:39:19.049Z,95.80
2018-12-26T01:41:48.109Z,95.70
2018-12-26T01:44:17.212Z,95.60
2018-12-26T01:46:46.424Z,95.40
2018-12-26T01:49:15.332Z,95.30
2018-12-26T01:51:44.431Z,95.20
2018-12-26T01:54:13.501Z,95.20
2018-12-26T01:56:42.349Z,95.30
2018-12-26T01:59:11.205Z,95.40
2018-12-26T02:01:40.898Z,95.50
2018-12-26T02:04:09.763Z,95.40
2018-12-26T02:06:39.160Z,95.30
2018-12-26T02:09:08.667Z,94.80
2018-12-26T02:11:37.505Z,94.60
2018-12-26T02:14:06.560Z,94.50
2018-12-26T02:16:35.483Z,94.40
2018-12-26T02:19:04.482Z,94.40
2018-12-26T02:21:33.634Z,94.50
2018-12-26T02:24:02.785Z,94.70
2018-12-26T02:26:36.401Z,94.80
2018-12-26T02:29:02.781Z,94.80
2018-12-26T02:31:31.829Z,94.80
2018-12-26T02:34:00.893Z,94.70
2018-12-26T02:36:29.802Z,94.60
2018-12-26T02:38:58.581Z,94.20
2018-12-26T02:41:28.179Z,93.90
2018-12-26T02:43:56.955Z,93.90
2018-12-26T02:46:25.935Z,94.00
2018-12-26T02:48:54.756Z,94.50
2018-12-26T02:51:23.518Z,94.20
2018-12-26T02:53:52.933Z,94.30
2018-12-26T02:56:21.728Z,94.40
2018-12-26T02:58:50.528Z,94.60
2018-12-26T03:01:20.577Z,94.60
2018-12-26T03:03:49.833Z,94.50
2018-12-26T03:06:18.626Z,94.40
2018-12-26T03:08:47.854Z,94.30
2018-12-26T03:11:16.619Z,94.10
2018-12-26T03:13:45.926Z,94.20
2018-12-26T03:16:14.745Z,94.20
2018-12-26T03:18:43.678Z,94.30
2018-12-26T03:21:12.539Z,94.50
2018-12-26T03:23:41.346Z,94.60
2018-12-26T03:26:10.761Z,94.60
2018-12-26T03:28:39.869Z,94.70
2018-12-26T03:31:08.663Z,94.80
2018-12-26T03:33:38.242Z,94.60
2018-12-26T03:36:07.455Z,94.60
2018-12-26T03:38:36.309Z,94.80
2018-12-26T03:41:05.596Z,95.00
2018-12-26T03:43:34.553Z,95.00
2018-12-26T03:46:03.532Z,95.00
2018-12-26T03:48:32.929Z,95.00
2018-12-26T03:51:01.865Z,95.00
2018-12-26T03:53:30.757Z,95.00
2018-12-26T03:55:59.698Z,95.20
2018-12-26T03:58:28.698Z,94.80
2018-12-26T04:00:57.563Z,94.80
2018-12-26T04:03:26.442Z,94.80
2018-12-26T04:05:55.303Z,94.10
2018-12-26T04:08:24.405Z,94.00
2018-12-26T04:10:53.451Z,94.10
2018-12-26T04:13:22.412Z,94.20
2018-12-26T04:15:51.736Z,94.30
2018-12-26T04:18:21.681Z,94.70
2018-12-26T04:20:50.528Z,94.60
2018-12-26T04:23:19.554Z,94.70
2018-12-26T04:25:48.654Z,94.90
2018-12-26T04:28:17.424Z,95.00
2018-12-26T04:30:46.570Z,94.90
2018-12-26T04:33:15.838Z,94.80
2018-12-26T04:35:44.671Z,94.80
2018-12-26T04:38:13.817Z,94.70
2018-12-26T04:40:43.037Z,94.70
2018-12-26T04:43:12.217Z,94.70
2018-12-26T04:45:41.010Z,94.70
2018-12-26T04:48:10.093Z,94.70
2018-12-26T04:50:38.891Z,94.80
2018-12-26T04:53:07.913Z,94.70
2018-12-26T04:55:36.699Z,94.70
2018-12-26T04:58:05.471Z,94.70
2018-12-26T05:00:34.309Z,94.70
2018-12-26T05:03:03.124Z,94.70
2018-12-26T05:05:32.098Z,94.70
2018-12-26T05:08:01.407Z,94.80
2018-12-26T05:10:30.192Z,94.80
2018-12-26T05:12:59.458Z,94.70
2018-12-26T05:15:28.333Z,94.50
2018-12-26T05:17:57.680Z,94.60
2018-12-26T05:20:26.553Z,94.20
2018-12-26T05:22:55.676Z,94.10
2018-12-26T05:25:24.545Z,94.20
2018-12-26T05:27:53.652Z,94.40
2018-12-26T05:30:22.865Z,94.50
2018-12-26T05:32:52.037Z,94.50
2018-12-26T05:35:21.211Z,94.50
2018-12-26T05:37:50.126Z,94.50
2018-12-26T05:40:19.236Z,94.60
2018-12-26T05:42:48.345Z,94.60
2018-12-26T05:45:17.209Z,94.60
2018-12-26T05:47:45.989Z,94.60
2018-12-26T05:50:15.253Z,94.40
2018-12-26T05:52:44.697Z,94.30
2018-12-26T05:55:13.493Z,94.80
2018-12-26T05:57:43.174Z,94.30
2018-12-26T06:00:12.133Z,94.40
2018-12-26T06:02:41.305Z,94.70
2018-12-26T06:05:10.117Z,94.90
2018-12-26T06:07:39.228Z,95.00
2018-12-26T06:10:08.361Z,95.00
2018-12-26T06:12:37.451Z,95.10
2018-12-26T06:15:06.388Z,95.10
2018-12-26T06:17:35.191Z,95.10
2018-12-26T06:20:04.434Z,95.40
2018-12-26T06:22:33.351Z,95.10
2018-12-26T06:25:02.787Z,95.20
2018-12-26T06:27:31.658Z,95.10
2018-12-26T06:30:00.776Z,94.60
2018-12-26T06:32:29.877Z,94.60
2018-12-26T06:34:59.084Z,94.70
2018-12-26T06:37:28.248Z,94.90
2018-12-26T06:39:57.033Z,94.90
2018-12-26T06:42:25.830Z,94.50
2018-12-26T06:44:54.837Z,93.90
2018-12-26T06:47:23.618Z,94.00
2018-12-26T06:49:52.398Z,94.10
2018-12-26T06:52:21.618Z,94.30
2018-12-26T06:54:50.422Z,94.20
2018-12-26T06:57:19.191Z,94.20
2018-12-26T06:59:48.009Z,94.30
2018-12-26T07:02:17.145Z,94.40
2018-12-26T07:04:46.266Z,94.60
2018-12-26T07:07:15.365Z,94.50
2018-12-26T07:09:44.751Z,94.50
2018-12-26T07:12:13.901Z,94.70
2018-12-26T07:14:42.712Z,94.90
2018-12-26T07:17:11.533Z,95.10
2018-12-26T07:19:40.446Z,95.20
2018-12-26T07:22:09.585Z,95.30
2018-12-26T07:24:38.489Z,95.20
2018-12-26T07:27:07.595Z,94.80
2018-12-26T07:29:36.400Z,94.70
2018-12-26T07:32:05.169Z,94.60
2018-12-26T07:34:41.988Z,94.50
2018-12-26T07:37:04.801Z,94.40
2018-12-26T07:39:33.649Z,94.40
2018-12-26T07:42:02.572Z,94.20
2018-12-26T07:44:31.357Z,94.40
2018-12-26T07:47:00.516Z,94.50
2018-12-26T07:49:30.586Z,94.60
2018-12-26T07:51:59.741Z,94.60
2018-12-26T07:54:28.582Z,94.70
2018-12-26T07:56:57.465Z,94.60
2018-12-26T07:59:26.664Z,94.30
2018-12-26T08:01:55.560Z,94.20
2018-12-26T08:04:24.397Z,94.20
2018-12-26T08:06:53.585Z,93.90
2018-12-26T08:09:22.680Z,94.10
2018-12-26T08:11:51.496Z,94.20
2018-12-26T08:14:20.984Z,93.90
2018-12-26T08:16:49.775Z,93.80
2018-12-26T08:19:18.914Z,93.60
2018-12-26T08:21:47.808Z,93.30
2018-12-26T08:24:17.224Z,93.00
2018-12-26T08:26:46.296Z,92.90
2018-12-26T08:29:15.106Z,93.00
2018-12-26T08:31:44.333Z,93.20
2018-12-26T08:34:13.426Z,93.40
2018-12-26T08:36:43.446Z,93.60
2018-12-26T08:39:12.317Z,93.40
2018-12-26T08:41:41.269Z,93.30
2018-12-26T08:44:10.100Z,93.40
2018-12-26T08:46:39.386Z,93.50
2018-12-26T08:49:08.569Z,93.00
2018-12-26T08:51:37.357Z,92.70
2018-12-26T08:54:06.157Z,92.70
2018-12-26T08:56:35.125Z,92.50
2018-12-26T08:59:04.279Z,92.30
2018-12-26T09:01:33.128Z,91.40
2018-12-26T09:04:02.009Z,91.80
2018-12-26T09:06:30.821Z,91.70
2018-12-26T09:08:59.882Z,91.70
2018-12-26T09:11:28.817Z,91.50
2018-12-26T09:13:57.672Z,91.90
2018-12-26T09:16:26.798Z,92.00
2018-12-26T09:18:58.541Z,91.70
2018-12-26T09:21:27.392Z,91.60
2018-12-26T09:23:56.229Z,91.50
2018-12-26T09:26:25.281Z,91.60
2018-12-26T09:28:54.097Z,91.50
2018-12-26T09:31:23.245Z,91.10
2018-12-26T09:33:52.276Z,90.70
2018-12-26T09:36:21.158Z,90.30
2018-12-26T09:38:50.299Z,90.30
2018-12-26T09:41:19.210Z,90.40
2018-12-26T09:43:48.118Z,90.30
2018-12-26T09:46:17.108Z,90.40
2018-12-26T09:48:45.912Z,90.40
2018-12-26T09:51:14.705Z,90.00
2018-12-26T09:53:43.542Z,89.90
2018-12-26T09:56:12.404Z,89.90
2018-12-26T09:58:41.177Z,88.80
2018-12-26T10:01:09.994Z,89.10
2018-12-26T10:03:38.889Z,88.60
2018-12-26T10:06:07.689Z,88.40
2018-12-26T10:08:36.533Z,88.10
2018-12-26T10:11:05.392Z,88.40
2018-12-26T10:13:34.561Z,88.60
2018-12-26T10:16:04.008Z,88.40
2018-12-26T10:18:32.955Z,88.40
2018-12-26T10:21:01.836Z,87.80
2018-12-26T10:23:30.696Z,87.80
2018-12-26T10:25:59.516Z,88.10
2018-12-26T10:28:28.392Z,87.30
2018-12-26T10:30:57.209Z,87.80
2018-12-26T10:33:26.523Z,87.00
2018-12-26T10:35:55.340Z,86.90
2018-12-26T10:38:24.148Z,85.90
2018-12-26T10:40:53.004Z,86.70
2018-12-26T10:43:21.927Z,86.50
2018-12-26T10:45:51.168Z,86.60
2018-12-26T10:48:20.074Z,86.60
2018-12-26T10:50:48.932Z,86.10
2018-12-26T10:53:17.888Z,85.70
2018-12-26T10:55:46.675Z,84.20
2018-12-26T10:58:15.548Z,84.60
2018-12-26T11:00:44.513Z,84.20
2018-12-26T11:03:13.453Z,83.40
2018-12-26T11:05:42.418Z,83.20
2018-12-26T11:08:11.378Z,83.00
2018-12-26T11:10:40.309Z,83.50
2018-12-26T11:13:09.120Z,84.10
2018-12-26T11:15:37.905Z,83.10
2018-12-26T11:18:07.112Z,83.00
2018-12-26T11:20:36.030Z,82.80
2018-12-26T11:23:04.905Z,83.20
2018-12-26T11:25:33.819Z,83.30
2018-12-26T11:28:02.748Z,84.00
2018-12-26T11:30:31.533Z,84.90
2018-12-26T11:33:01.472Z,85.30
2018-12-26T11:35:30.692Z,85.70
2018-12-26T11:37:59.583Z,84.60
2018-12-26T11:40:28.625Z,83.40
2018-12-26T11:42:57.950Z,82.80
2018-12-26T11:45:26.837Z,81.60
2018-12-26T11:47:55.860Z,81.70
2018-12-26T11:50:24.741Z,82.70
2018-12-26T11:52:54.969Z,81.00
2018-12-26T11:55:23.800Z,81.30
2018-12-26T11:57:55.706Z,80.80
2018-12-26T12:00:24.495Z,81.70
2018-12-26T12:02:53.523Z,80.80
2018-12-26T12:05:22.525Z,79.60
2018-12-26T12:07:51.479Z,79.70
2018-12-26T12:10:20.412Z,78.50
2018-12-26T12:12:49.293Z,78.80
2018-12-26T12:15:18.840Z,77.10
2018-12-26T12:17:47.768Z,77.00
2018-12-26T12:20:16.801Z,77.00
2018-12-26T12:22:46.109Z,76.50
2018-12-26T12:25:14.928Z,76.40
2018-12-26T12:27:44.580Z,76.70
2018-12-26T12:30:13.372Z,77.10
2018-12-26T12:32:42.234Z,77.70
2018-12-26T12:35:11.303Z,77.70
2018-12-26T12:37:40.513Z,78.70
2018-12-26T12:40:11.192Z,79.50
2018-12-26T12:42:40.013Z,79.40
2018-12-26T12:45:09.384Z,80.30
2018-12-26T12:47:38.518Z,80.60
2018-12-26T12:50:07.628Z,80.80
2018-12-26T12:52:36.661Z,80.80
2018-12-26T12:55:06.646Z,81.00
2018-12-26T12:57:35.602Z,81.20
2018-12-26T13:00:04.714Z,81.10
2018-12-26T13:02:33.679Z,81.10
2018-12-26T13:05:02.676Z,81.40
2018-12-26T13:07:31.477Z,82.30
2018-12-26T13:10:00.284Z,81.70
2018-12-26T13:12:29.561Z,81.80
2018-12-26T13:14:58.489Z,81.30
2018-12-26T13:17:27.273Z,81.90
2018-12-26T13:19:56.085Z,81.40
2018-12-26T13:22:24.909Z,81.30
2018-12-26T13:24:57.046Z,81.60
2018-12-26T13:27:25.961Z,81.20
2018-12-26T13:29:54.866Z,81.30
2018-12-26T13:32:23.656Z,81.10
2018-12-26T13:34:52.478Z,80.90
2018-12-26T13:37:21.881Z,81.20
2018-12-26T13:39:51.105Z,81.10
2018-12-26T13:42:20.228Z,81.00
2018-12-26T13:44:49.047Z,81.30
2018-12-26T13:47:17.842Z,81.20
2018-12-26T13:49:46.650Z,80.90
2018-12-26T13:52:15.689Z,81.00
2018-12-26T13:54:44.536Z,82.00
2018-12-26T13:57:13.409Z,82.70
2018-12-26T13:59:42.221Z,82.90
2018-12-26T14:02:11.273Z,83.00
2018-12-26T14:04:40.357Z,83.70
2018-12-26T14:07:09.168Z,84.00
2018-12-26T14:09:38.220Z,84.30
2018-12-26T14:12:07.117Z,84.40
2018-12-26T14:14:36.445Z,84.80
2018-12-26T14:17:05.249Z,85.60
2018-12-26T14:19:34.466Z,86.60
2018-12-26T14:22:03.274Z,87.60
2018-12-26T14:24:32.565Z,88.10
2018-12-26T14:27:01.664Z,88.50
2018-12-26T14:29:30.791Z,88.90
2018-12-26T14:31:59.622Z,89.60
2018-12-26T14:34:28.415Z,90.00
2018-12-26T14:36:57.260Z,90.20
2018-12-26T14:39:26.392Z,90.40
2018-12-26T14:41:55.535Z,90.60
2018-12-26T14:44:24.349Z,91.00
2018-12-26T14:46:53.289Z,91.30
2018-12-26T14:49:22.139Z,91.50
2018-12-26T14:51:51.040Z,91.70
2018-12-26T14:54:19.838Z,92.00
2018-12-26T14:56:48.953Z,92.20
2018-12-26T14:59:18.020Z,92.70
2018-12-26T15:01:47.447Z,92.90
2018-12-26T15:04:16.529Z,93.20
2018-12-26T15:06:45.370Z,93.60
2018-12-26T15:09:14.493Z,94.00
2018-12-26T15:11:43.301Z,94.10
2018-12-26T15:14:12.125Z,94.30
2018-12-26T15:16:40.959Z,94.40
2018-12-26T15:19:16.830Z,94.60
2018-12-26T15:21:45.754Z,94.80
2018-12-26T15:24:14.607Z,95.00
2018-12-26T15:26:43.716Z,95.20
2018-12-26T15:29:12.847Z,95.40
2018-12-26T15:31:41.733Z,95.50
2018-12-26T15:34:10.682Z,95.70
2018-12-26T15:36:39.888Z,95.50
2018-12-26T15:39:11.080Z,95.50
2018-12-26T15:41:40.801Z,95.80
2018-12-26T15:44:10.228Z,95.90
2018-12-26T15:46:39.249Z,96.10
2018-12-26T15:49:09.663Z,96.20
2018-12-26T15:51:38.859Z,95.90
2018-12-26T15:54:07.721Z,96.30
2018-12-26T15:56:36.592Z,96.50
2018-12-26T15:59:05.680Z,96.60
2018-12-26T16:01:34.538Z,96.60
2018-12-26T16:04:03.377Z,96.50
2018-12-26T16:06:32.200Z,96.60
2018-12-26T16:09:01.545Z,96.70
2018-12-26T16:11:30.665Z,97.20
2018-12-26T16:13:59.900Z,97.10
2018-12-26T16:16:29.233Z,97.20
2018-12-26T16:18:58.066Z,97.20
2018-12-26T16:21:26.881Z,97.30
2018-12-26T16:23:56.248Z,97.20
2018-12-26T16:26:25.622Z,97.10
2018-12-26T16:28:54.691Z,97.20
2018-12-26T16:31:23.889Z,97.30
2018-12-26T16:33:52.853Z,97.40
2018-12-26T16:36:21.762Z,97.50
2018-12-26T16:38:51.084Z,97.40
2018-12-26T16:41:20.184Z,97.30
2018-12-26T16:43:49.340Z,97.40
2018-12-26T16:46:18.445Z,97.80
2018-12-26T16:48:48.128Z,98.30
2018-12-26T16:51:16.986Z,98.20
2018-12-26T16:53:46.437Z,98.20
2018-12-26T16:56:15.712Z,98.10
2018-12-26T16:58:44.532Z,97.70
2018-12-26T17:01:13.325Z,97.50
2018-12-26T17:03:42.141Z,97.40
2018-12-26T17:06:11.484Z,97.60
2018-12-26T17:08:40.300Z,97.60
2018-12-26T17:11:09.338Z,97.80
2018-12-26T17:13:38.620Z,97.90
2018-12-26T17:16:07.620Z,97.80
2018-12-26T17:18:36.469Z,97.90
2018-12-26T17:21:05.333Z,97.90
2018-12-26T17:23:34.153Z,97.90
2018-12-26T17:26:03.000Z,98.00
2018-12-26T17:28:32.448Z,98.10
2018-12-26T17:31:04.277Z,98.10
2018-12-26T17:33:32.780Z,98.00
2018-12-26T17:36:01.653Z,98.20
2018-12-26T17:38:30.572Z,98.20
2018-12-26T17:40:59.353Z,98.30
2018-12-26T17:43:28.183Z,98.30
2018-12-26T17:45:56.961Z,98.20
2018-12-26T17:48:25.764Z,98.30
2018-12-26T17:50:54.582Z,98.60
2018-12-26T17:54:09.938Z,98.60
2018-12-26T17:56:44.200Z,98.50
2018-12-26T17:59:34.685Z,98.40
2018-12-26T18:02:18.251Z,98.30
2018-12-26T18:04:47.112Z,98.30
2018-12-26T18:07:15.950Z,98.40
2018-12-26T18:09:44.996Z,98.40
2018-12-26T18:12:13.950Z,98.40
2018-12-26T18:14:42.877Z,98.40
2018-12-26T18:17:11.940Z,98.50
2018-12-26T18:19:41.448Z,98.40
2018-12-26T18:22:10.780Z,98.40
2018-12-26T18:24:40.026Z,98.40
2018-12-26T18:27:09.141Z,98.50
2018-12-26T18:29:38.099Z,98.70
2018-12-26T18:32:07.717Z,98.70
2018-12-26T18:34:37.039Z,98.90
2018-12-26T18:37:05.926Z,98.90
2018-12-26T18:39:34.743Z,98.70
2018-12-26T18:42:03.686Z,98.70
2018-12-26T18:44:32.945Z,98.80
2018-12-26T18:47:02.033Z,98.70
2018-12-26T18:49:31.016Z,98.70
2018-12-26T18:52:00.172Z,98.80
2018-12-26T18:54:29.249Z,98.80
2018-12-26T18:56:58.128Z,98.80
2018-12-26T18:59:27.416Z,98.80
2018-12-26T19:01:56.217Z,98.60
2018-12-26T19:04:26.737Z,98.50
2018-12-26T19:06:55.584Z,98.60
2018-12-26T19:09:24.614Z,98.60
2018-12-26T19:11:53.733Z,98.70
2018-12-26T19:14:22.611Z,98.70
2018-12-26T19:16:51.482Z,98.80
2018-12-26T19:19:20.410Z,98.80
2018-12-26T19:21:49.220Z,98.70
2018-12-26T19:24:18.035Z,98.60
2018-12-26T19:26:47.021Z,98.50
2018-12-26T19:29:15.836Z,98.50
2018-12-26T19:31:46.240Z,98.70
2018-12-26T19:34:15.173Z,98.80
2018-12-26T19:36:44.008Z,98.90
2018-12-26T19:39:12.838Z,98.90
2018-12-26T19:41:43.305Z,99.10
2018-12-26T19:44:12.340Z,99.20
2018-12-26T19:46:41.149Z,99.20
2018-12-26T19:49:10.130Z,99.20
2018-12-26T19:51:39.002Z,99.20
2018-12-26T19:54:07.913Z,99.30
2018-12-26T19:56:36.803Z,99.20
2018-12-26T19:59:05.709Z,99.10
2018-12-26T20:01:35.112Z,98.90
2018-12-26T20:04:04.042Z,98.80
2018-12-26T20:06:32.886Z,98.70
2018-12-26T20:09:01.735Z,98.60
2018-12-26T20:11:30.581Z,98.70
2018-12-26T20:13:59.395Z,98.70
2018-12-26T20:16:28.289Z,98.90
2018-12-26T20:18:57.089Z,99.10
2018-12-26T20:21:26.346Z,99.20
2018-12-26T20:23:55.164Z,99.20
2018-12-26T20:26:24.071Z,99.20
2018-12-26T20:28:52.992Z,99.10
2018-12-26T20:31:22.880Z,98.90
2018-12-26T20:33:52.024Z,99.00
2018-12-26T20:36:20.846Z,98.90
2018-12-26T20:38:49.776Z,98.80
2018-12-26T20:41:18.809Z,98.80
2018-12-26T20:43:47.795Z,98.90
2018-12-26T20:46:16.796Z,98.90
2018-12-26T20:48:45.701Z,98.90
2018-12-26T20:51:14.523Z,98.80
2018-12-26T20:53:43.296Z,98.80
2018-12-26T20:56:12.445Z,98.70
2018-12-26T20:58:41.855Z,98.70
2018-12-26T21:01:10.732Z,98.60
2018-12-26T21:03:39.766Z,98.60
2018-12-26T21:06:09.041Z,98.60
2018-12-26T21:08:37.923Z,98.50
2018-12-26T21:11:07.178Z,98.60
2018-12-26T21:13:36.242Z,99.10
2018-12-26T21:16:05.116Z,98.70
2018-12-26T21:18:34.136Z,98.70
2018-12-26T21:21:03.091Z,98.80
2018-12-26T21:23:31.970Z,98.80
2018-12-26T21:26:01.821Z,98.70
2018-12-26T21:28:30.754Z,98.80
2018-12-26T21:30:59.592Z,98.90
2018-12-26T21:33:28.486Z,98.90
2018-12-26T21:35:57.319Z,98.80
2018-12-26T21:38:26.470Z,98.80
2018-12-26T21:40:55.440Z,98.90
2018-12-26T21:43:24.388Z,98.90
2018-12-26T21:45:53.692Z,98.90
2018-12-26T21:48:22.486Z,99.00
2018-12-26T21:50:51.533Z,99.10
2018-12-26T21:53:20.505Z,99.10
2018-12-26T21:55:53.646Z,99.10
2018-12-26T21:58:22.752Z,99.00
2018-12-26T22:00:51.747Z,99.00
2018-12-26T22:03:20.695Z,99.00
2018-12-26T22:05:49.874Z,99.00
2018-12-26T22:08:19.086Z,98.90
2018-12-26T22:10:47.949Z,98.90
2018-12-26T22:13:18.411Z,99.00
2018-12-26T22:15:47.689Z,99.10
2018-12-26T22:18:16.520Z,99.20
2018-12-26T22:20:45.481Z,99.20
2018-12-26T22:23:14.434Z,99.10
2018-12-26T22:25:43.485Z,99.00
2018-12-26T22:28:12.756Z,99.00
2018-12-26T22:30:41.705Z,99.00
2018-12-26T22:33:10.686Z,99.00
2018-12-26T22:35:39.661Z,99.00
2018-12-26T22:38:08.807Z,99.10
2018-12-26T22:40:37.973Z,99.10
2018-12-26T22:43:06.900Z,99.00
2018-12-26T22:45:43.626Z,99.10
2018-12-26T22:48:06.521Z,99.00
2018-12-26T22:50:35.345Z,99.20
2018-12-26T22:53:04.726Z,99.20
2018-12-26T22:55:33.677Z,99.10
2018-12-26T22:58:06.860Z,99.10
2018-12-26T23:00:43.945Z,99.20
2018-12-26T23:03:12.758Z,99.40
2018-12-26T23:05:41.681Z,99.40
2018-12-26T23:08:10.658Z,99.30
2018-12-26T23:10:39.449Z,99.20
2018-12-26T23:13:08.374Z,99.20
2018-12-26T23:15:37.725Z,99.20
2018-12-26T23:18:06.848Z,99.20
2018-12-26T23:20:35.942Z,99.10
2018-12-26T23:23:04.725Z,98.90
2018-12-26T23:25:34.057Z,98.80
2018-12-26T23:28:02.850Z,98.70
2018-12-26T23:30:31.741Z,98.80
2018-12-26T23:33:00.708Z,98.90
2018-12-26T23:35:29.491Z,98.90
2018-12-26T23:37:58.273Z,98.80
2018-12-26T23:40:27.509Z,98.80
2018-12-26T23:42:56.652Z,98.80
2018-12-26T23:45:25.538Z,98.70
2018-12-26T23:47:54.649Z,99.00
2018-12-26T23:50:23.690Z,99.20
2018-12-26T23:52:52.467Z,99.30
2018-12-26T23:55:22.467Z,99.30
2018-12-26T23:57:51.240Z,99.60
